This is the latest recevied weather packets stored in our database for station/object OM8AKX-12. If no packets are shown the sender has not sent any weather packets the latest 10 day(s).
| Time | Temp. | Humidity | Pressure | Rain* | Wind** | Luminosity | Snow |
|---|---|---|---|---|---|---|---|
| 1777346666 | 2.78° C | 67% | 1015.9 hPa | - | - | - | - |
| 1777345766 | 2.78° C | 64% | 1015.9 hPa | - | - | - | - |
| 1777344866 | 3.33° C | 61% | 1015.9 hPa | - | - | - | - |
| 1777343966 | 3.89° C | 58% | 1015.8 hPa | - | - | - | - |
| 1777343066 | 4.44° C | 54% | 1015.8 hPa | - | - | - | - |
| 1777342166 | 4.44° C | 53% | 1015.9 hPa | - | - | - | - |
| 1777341266 | 4.44° C | 53% | 1015.9 hPa | - | - | - | - |
| 1777340366 | 4.44° C | 53% | 1015.9 hPa | - | - | - | - |
| 1777339466 | 5.56° C | 48% | 1015.9 hPa | - | - | - | - |
| 1777338566 | 6.11° C | 45% | 1015.8 hPa | - | - | - | - |
| 1777337666 | 6.11° C | 45% | 1016 hPa | - | - | - | - |
| 1777336766 | 6.67° C | 43% | 1016 hPa | - | - | - | - |
| 1777335866 | 7.22° C | 40% | 1015.9 hPa | - | - | - | - |
| 1777334966 | 7.78° C | 39% | 1015.8 hPa | - | - | - | - |
| 1777334066 | 7.78° C | 38% | 1015.9 hPa | - | - | - | - |
| 1777333166 | 7.78° C | 37% | 1015.8 hPa | - | - | - | - |
| 1777332266 | 7.78° C | 36% | 1015.8 hPa | - | - | - | - |
| 1777331365 | 7.78° C | 36% | 1015.8 hPa | - | - | - | - |
| 1777330465 | 7.78° C | 35% | 1015.8 hPa | - | - | - | - |
| 1777329565 | 8.33° C | 34% | 1015.8 hPa | - | - | - | - |
| 1777328665 | 8.33° C | 35% | 1015.8 hPa | - | - | - | - |
| 1777327765 | 8.33° C | 35% | 1015.9 hPa | - | - | - | - |
| 1777326865 | 8.33° C | 37% | 1015.8 hPa | - | - | - | - |
| 1777325965 | 8.33° C | 38% | 1015.6 hPa | - | - | - | - |
| 1777325065 | 7.22° C | 44% | 1015.7 hPa | - | - | - | - |
* Rain since midnight (hover to see other rain measurements)
** Current wind speed in m/s (hover to see current wind gust speed)